Time;durP1;ratioP1;P1;durP2;ratioP2;P2;SDS_P1;SDS_P2;PMS_P1;PMS_P2;Temp;Humidity;BMP_temperature;BMP_pressure;BME280_temperature;BME280_humidity;BME280_pressure;Samples;Min_cycle;Max_cycle;Signal;HPM_P1;HPM_P2
2021/07/14 00:00:11;;;;;;;2.45;1.10;;;;;;;;;;5028145;28;20291;-69
2021/07/14 00:02:36;;;;;;;2.78;1.00;;;;;;;;;;5034912;28;20073;-69
2021/07/14 00:05:09;;;;;;;1.40;1.00;;;;;;;;;;5038374;28;20040;-70
2021/07/14 00:07:34;;;;;;;3.60;1.23;;;;;;;;;;5036635;28;20033;-69
2021/07/14 00:09:59;;;;;;;1.80;1.05;;;;;;;;;;5032254;28;20075;-69
2021/07/14 00:12:27;;;;;;;2.55;1.50;;;;;;;;;;5030671;28;20029;-69
2021/07/14 00:17:11;;;;;;;2.40;1.30;;;;;;;;;;5031550;28;20119;-68
2021/07/14 00:23:19;;;;;;;1.83;1.20;;;;;;;;;;5029582;28;20211;-68
2021/07/14 00:25:45;;;;;;;3.70;1.27;;;;;;;;;;5030100;28;20481;-68
2021/07/14 00:28:10;;;;;;;4.60;1.60;;;;;;;;;;5038229;28;20028;-68
2021/07/14 00:30:37;;;;;;;1.60;1.20;;;;;;;;;;5045444;28;20028;-69
2021/07/14 00:33:02;;;;;;;2.45;1.40;;;;;;;;;;5030518;28;20080;-68
2021/07/14 00:35:28;;;;;;;2.47;1.20;;;;;;;;;;5031151;28;20017;-68
2021/07/14 00:37:53;;;;;;;4.20;1.55;;;;;;;;;;5033773;28;20033;-70
2021/07/14 00:40:18;;;;;;;2.97;1.48;;;;;;;;;;5033156;28;20018;-69
2021/07/14 00:42:46;;;;;;;3.55;1.50;;;;;;;;;;5030027;28;20452;-70
2021/07/14 00:45:11;;;;;;;5.85;1.50;;;;;;;;;;5034801;28;20025;-68
2021/07/14 00:47:37;;;;;;;4.55;1.63;;;;;;;;;;5037363;28;20077;-68
2021/07/14 00:50:04;;;;;;;2.95;1.30;;;;;;;;;;5033810;28;20028;-69
2021/07/14 00:52:29;;;;;;;3.85;1.60;;;;;;;;;;5037741;28;20025;-69
2021/07/14 00:54:55;;;;;;;3.45;1.90;;;;;;;;;;5038135;28;20403;-68
2021/07/14 00:57:24;;;;;;;3.40;1.50;;;;;;;;;;5030243;28;20053;-68
2021/07/14 00:59:49;;;;;;;2.95;1.63;;;;;;;;;;5042417;28;20104;-69
2021/07/14 01:02:15;;;;;;;3.37;1.40;;;;;;;;;;5040040;28;20120;-68
2021/07/14 01:04:42;;;;;;;3.72;1.58;;;;;;;;;;5029043;28;20279;-70
2021/07/14 01:07:19;;;;;;;3.15;1.65;;;;;;;;;;5028092;28;20016;-69
2021/07/14 01:09:48;;;;;;;2.40;1.33;;;;;;;;;;5034364;28;20036;-69
2021/07/14 01:12:18;;;;;;;3.72;1.70;;;;;;;;;;5033907;28;20159;-69
2021/07/14 01:14:45;;;;;;;3.85;1.65;;;;;;;;;;5030563;28;20033;-69
2021/07/14 01:17:11;;;;;;;3.78;1.60;;;;;;;;;;5036470;28;20028;-69
2021/07/14 01:19:55;;;;;;;1.92;1.45;;;;;;;;;;5034683;28;20013;-68
2021/07/14 01:22:28;;;;;;;4.25;1.67;;;;;;;;;;5029520;28;20052;-69
2021/07/14 01:25:04;;;;;;;4.50;1.88;;;;;;;;;;5030129;28;20040;-68
2021/07/14 01:27:34;;;;;;;3.85;1.70;;;;;;;;;;5036509;28;20384;-69
2021/07/14 01:29:59;;;;;;;3.47;1.48;;;;;;;;;;5033142;28;20101;-69
2021/07/14 01:32:29;;;;;;;3.88;1.88;;;;;;;;;;5035750;28;20029;-68
2021/07/14 01:34:59;;;;;;;3.08;1.90;;;;;;;;;;5028932;28;20500;-68
2021/07/14 01:37:25;;;;;;;5.15;1.90;;;;;;;;;;5029310;28;20037;-68
2021/07/14 01:39:51;;;;;;;3.25;1.60;;;;;;;;;;5030789;28;20033;-69
2021/07/14 01:42:19;;;;;;;2.83;1.75;;;;;;;;;;5028029;28;20099;-69
2021/07/14 01:44:44;;;;;;;2.53;1.88;;;;;;;;;;5029986;28;20045;-70
2021/07/14 01:47:09;;;;;;;3.35;2.10;;;;;;;;;;5027818;28;20337;-69
2021/07/14 01:49:35;;;;;;;3.95;1.92;;;;;;;;;;5028966;28;20029;-68
2021/07/14 01:52:15;;;;;;;3.78;1.75;;;;;;;;;;5031581;28;20034;-69
2021/07/14 01:54:41;;;;;;;3.53;1.95;;;;;;;;;;5031105;28;20021;-69
2021/07/14 01:57:07;;;;;;;4.57;2.25;;;;;;;;;;5037344;28;20021;-68
2021/07/14 01:59:33;;;;;;;3.28;1.95;;;;;;;;;;5023214;28;20496;-70
2021/07/14 02:02:00;;;;;;;3.80;1.77;;;;;;;;;;5030727;28;20038;-69
2021/07/14 02:04:31;;;;;;;4.10;1.80;;;;;;;;;;5032472;28;20032;-69
2021/07/14 02:06:57;;;;;;;2.88;2.10;;;;;;;;;;5030624;28;20440;-68
2021/07/14 02:09:22;;;;;;;3.90;2.40;;;;;;;;;;5026690;28;20021;-68
2021/07/14 02:11:50;;;;;;;4.18;2.30;;;;;;;;;;5033527;28;20047;-68
2021/07/14 02:14:16;;;;;;;4.18;2.03;;;;;;;;;;5037735;28;20116;-70
2021/07/14 02:16:43;;;;;;;3.00;1.75;;;;;;;;;;5032365;28;20400;-69
2021/07/14 02:19:10;;;;;;;4.50;2.28;;;;;;;;;;5027934;28;20017;-68
2021/07/14 02:21:35;;;;;;;3.45;1.65;;;;;;;;;;5034885;28;20038;-68
2021/07/14 02:24:01;;;;;;;5.13;2.17;;;;;;;;;;5029031;28;20487;-69
2021/07/14 02:26:28;;;;;;;8.35;2.50;;;;;;;;;;5040340;28;20536;-69
2021/07/14 02:28:54;;;;;;;3.92;2.13;;;;;;;;;;5035682;28;20388;-69
2021/07/14 02:31:19;;;;;;;6.50;2.75;;;;;;;;;;5037950;28;20029;-68
2021/07/14 02:33:44;;;;;;;3.72;2.50;;;;;;;;;;5028644;28;20023;-69
2021/07/14 02:36:12;;;;;;;5.38;2.65;;;;;;;;;;5027846;28;20055;-68
2021/07/14 02:38:42;;;;;;;4.70;2.60;;;;;;;;;;5033754;28;20026;-68
2021/07/14 02:41:28;;;;;;;4.53;2.75;;;;;;;;;;5044942;28;20043;-68
2021/07/14 02:43:58;;;;;;;4.97;2.30;;;;;;;;;;5032689;28;20051;-69
2021/07/14 02:46:26;;;;;;;5.13;2.53;;;;;;;;;;5036773;28;20064;-69
2021/07/14 02:48:57;;;;;;;4.00;2.60;;;;;;;;;;5030656;28;20016;-69
2021/07/14 02:51:23;;;;;;;6.35;2.58;;;;;;;;;;5037464;28;20071;-68
2021/07/14 02:53:49;;;;;;;4.05;2.55;;;;;;;;;;5029517;28;20424;-69
2021/07/14 02:56:18;;;;;;;4.03;2.35;;;;;;;;;;5028552;28;20361;-69
2021/07/14 02:58:44;;;;;;;5.72;2.78;;;;;;;;;;5026674;28;20021;-69
2021/07/14 03:01:12;;;;;;;5.55;2.92;;;;;;;;;;5024587;28;20355;-68
2021/07/14 03:03:37;;;;;;;5.20;2.25;;;;;;;;;;5035383;28;20033;-69
2021/07/14 03:06:03;;;;;;;5.22;2.25;;;;;;;;;;5029556;28;20088;-69
2021/07/14 03:08:29;;;;;;;3.22;2.28;;;;;;;;;;5027264;28;20025;-69
2021/07/14 03:10:55;;;;;;;3.70;2.40;;;;;;;;;;5033887;28;20167;-69
2021/07/14 03:13:22;;;;;;;4.78;2.40;;;;;;;;;;5040641;28;20136;-67
2021/07/14 03:15:48;;;;;;;3.83;2.15;;;;;;;;;;5035835;28;20058;-69
2021/07/14 03:18:14;;;;;;;4.28;2.22;;;;;;;;;;5035454;28;20033;-69
2021/07/14 03:20:40;;;;;;;4.95;2.80;;;;;;;;;;5024241;28;20384;-68
2021/07/14 03:23:06;;;;;;;4.55;2.58;;;;;;;;;;5038958;28;20044;-69
2021/07/14 03:25:31;;;;;;;3.60;2.05;;;;;;;;;;5032809;28;20024;-68
2021/07/14 03:27:56;;;;;;;4.20;2.30;;;;;;;;;;5032506;28;20036;-70
2021/07/14 03:30:23;;;;;;;5.10;2.80;;;;;;;;;;5025626;28;20022;-69
2021/07/14 03:32:48;;;;;;;6.10;2.90;;;;;;;;;;5038464;28;20029;-68
2021/07/14 03:35:14;;;;;;;3.70;2.33;;;;;;;;;;5026116;28;20408;-68
2021/07/14 03:37:40;;;;;;;4.40;2.33;;;;;;;;;;5038818;28;20028;-69
2021/07/14 03:40:07;;;;;;;4.15;2.50;;;;;;;;;;5030458;28;20031;-69
2021/07/14 03:42:32;;;;;;;4.67;2.73;;;;;;;;;;4990009;28;1025684;-69
2021/07/14 03:44:57;;;;;;;7.80;2.85;;;;;;;;;;5034943;28;20113;-69
2021/07/14 03:47:23;;;;;;;3.72;2.60;;;;;;;;;;5030182;28;20123;-70
2021/07/14 03:49:49;;;;;;;3.35;2.60;;;;;;;;;;5037411;28;20033;-69
2021/07/14 03:52:15;;;;;;;5.03;2.28;;;;;;;;;;5027187;28;20032;-68
2021/07/14 03:54:40;;;;;;;4.25;2.50;;;;;;;;;;5029650;28;20021;-68
2021/07/14 03:57:08;;;;;;;4.30;2.03;;;;;;;;;;5027981;28;20112;-69
2021/07/14 03:59:33;;;;;;;3.40;2.20;;;;;;;;;;5026109;28;20033;-69
2021/07/14 04:01:58;;;;;;;3.10;2.17;;;;;;;;;;5029678;28;20441;-69
2021/07/14 04:04:23;;;;;;;3.70;2.25;;;;;;;;;;5037868;28;20024;-68
2021/07/14 04:06:52;;;;;;;3.20;2.20;;;;;;;;;;5030719;28;20041;-68
2021/07/14 04:09:18;;;;;;;4.68;2.40;;;;;;;;;;5030480;28;20142;-67
2021/07/14 04:11:44;;;;;;;2.25;1.70;;;;;;;;;;5034305;28;20117;-69
2021/07/14 04:14:10;;;;;;;2.90;1.95;;;;;;;;;;5023968;28;20040;-69
2021/07/14 04:16:35;;;;;;;2.78;1.95;;;;;;;;;;5024344;28;20018;-68
2021/07/14 04:19:01;;;;;;;2.97;1.80;;;;;;;;;;5024700;28;20049;-69
2021/07/14 04:21:26;;;;;;;3.65;1.90;;;;;;;;;;5039393;28;20392;-68
2021/07/14 04:23:51;;;;;;;4.28;2.00;;;;;;;;;;5030987;28;20025;-69
2021/07/14 04:26:16;;;;;;;4.97;2.35;;;;;;;;;;5031939;28;20033;-68
2021/07/14 04:28:42;;;;;;;6.00;2.05;;;;;;;;;;5031309;28;20024;-68
2021/07/14 04:31:07;;;;;;;2.80;1.70;;;;;;;;;;5028413;28;20024;-68
2021/07/14 04:33:32;;;;;;;4.10;1.60;;;;;;;;;;5026552;28;20116;-69
2021/07/14 04:35:58;;;;;;;6.35;1.52;;;;;;;;;;5026786;28;20400;-70
2021/07/14 04:38:23;;;;;;;4.25;1.83;;;;;;;;;;5029108;28;20033;-68
2021/07/14 04:40:48;;;;;;;2.50;1.40;;;;;;;;;;5027815;28;20025;-69
2021/07/14 04:43:14;;;;;;;2.83;1.70;;;;;;;;;;5031609;28;20365;-69
2021/07/14 04:45:39;;;;;;;4.22;1.40;;;;;;;;;;5037171;28;20837;-68
2021/07/14 04:48:05;;;;;;;2.58;1.70;;;;;;;;;;5031246;28;20124;-68
2021/07/14 04:50:31;;;;;;;4.30;1.30;;;;;;;;;;5044345;28;20381;-68
2021/07/14 04:52:56;;;;;;;5.38;1.30;;;;;;;;;;5041571;28;20053;-68
2021/07/14 04:55:21;;;;;;;2.38;1.38;;;;;;;;;;5027108;28;20033;-68
2021/07/14 04:57:46;;;;;;;3.83;1.30;;;;;;;;;;5030707;28;20025;-69
2021/07/14 05:00:16;;;;;;;3.40;1.52;;;;;;;;;;5033474;28;20049;-68
2021/07/14 05:02:41;;;;;;;3.17;1.50;;;;;;;;;;5027859;28;20030;-69
2021/07/14 05:05:06;;;;;;;2.73;1.40;;;;;;;;;;5038133;28;20728;-70
2021/07/14 05:07:32;;;;;;;2.75;1.52;;;;;;;;;;5043693;28;20295;-71
2021/07/14 05:09:57;;;;;;;9.18;1.70;;;;;;;;;;5027478;28;20021;-65
2021/07/14 05:12:22;;;;;;;2.90;1.20;;;;;;;;;;5041877;28;20040;-65
2021/07/14 05:14:48;;;;;;;3.70;1.50;;;;;;;;;;5034984;28;20024;-65
2021/07/14 05:17:13;;;;;;;3.03;1.42;;;;;;;;;;5033365;28;20480;-65
2021/07/14 05:19:38;;;;;;;1.88;1.38;;;;;;;;;;5037151;28;20045;-64
2021/07/14 05:22:03;;;;;;;2.23;1.20;;;;;;;;;;5031686;28;20083;-65
2021/07/14 05:24:28;;;;;;;2.78;1.25;;;;;;;;;;5031261;28;20299;-65
2021/07/14 05:26:53;;;;;;;2.55;1.20;;;;;;;;;;5043326;28;20021;-65
2021/07/14 05:29:19;;;;;;;1.80;1.13;;;;;;;;;;5038738;28;20028;-65
2021/07/14 05:31:44;;;;;;;6.33;1.20;;;;;;;;;;5030863;28;20272;-64
2021/07/14 05:34:09;;;;;;;1.55;1.00;;;;;;;;;;5025248;28;20276;-65
2021/07/14 05:36:34;;;;;;;3.53;1.30;;;;;;;;;;5035360;28;20060;-66
2021/07/14 05:38:59;;;;;;;2.55;1.20;;;;;;;;;;5039007;28;20116;-65
2021/07/14 05:41:25;;;;;;;1.23;0.93;;;;;;;;;;5029979;28;20232;-66
2021/07/14 05:43:50;;;;;;;1.42;0.90;;;;;;;;;;5032195;28;20046;-65
2021/07/14 05:46:15;;;;;;;1.93;1.10;;;;;;;;;;5045425;28;20477;-65
2021/07/14 05:48:41;;;;;;;2.03;1.27;;;;;;;;;;5034983;28;20279;-65
2021/07/14 05:51:06;;;;;;;2.45;1.25;;;;;;;;;;5028192;28;20108;-65
2021/07/14 05:53:31;;;;;;;2.35;1.35;;;;;;;;;;5041549;28;20032;-66
2021/07/14 05:55:56;;;;;;;2.03;1.20;;;;;;;;;;5042227;28;20030;-65
2021/07/14 05:58:21;;;;;;;4.03;1.55;;;;;;;;;;5038381;28;20026;-65
2021/07/14 06:00:47;;;;;;;2.00;1.30;;;;;;;;;;5030076;28;20017;-69
2021/07/14 06:03:12;;;;;;;3.03;1.40;;;;;;;;;;5033971;28;20264;-65
2021/07/14 06:05:37;;;;;;;2.45;1.38;;;;;;;;;;5049557;28;20268;-65
2021/07/14 06:08:03;;;;;;;5.07;1.35;;;;;;;;;;5044971;28;20619;-65
2021/07/14 06:10:28;;;;;;;2.67;1.27;;;;;;;;;;5033693;28;20020;-66
2021/07/14 06:12:58;;;;;;;3.50;1.48;;;;;;;;;;5037092;28;20013;-66
2021/07/14 06:15:24;;;;;;;1.83;1.30;;;;;;;;;;5035399;28;20029;-65
2021/07/14 06:17:49;;;;;;;2.90;1.80;;;;;;;;;;5034934;28;20400;-66
2021/07/14 06:20:15;;;;;;;3.95;2.03;;;;;;;;;;5039563;28;20022;-65
2021/07/14 06:22:40;;;;;;;4.47;2.00;;;;;;;;;;5044171;28;20029;-65
2021/07/14 06:25:06;;;;;;;7.22;2.10;;;;;;;;;;5039135;28;20025;-65
2021/07/14 06:27:33;;;;;;;3.03;1.70;;;;;;;;;;5041043;28;20013;-65
2021/07/14 06:30:00;;;;;;;3.67;1.58;;;;;;;;;;5037552;28;20079;-65
2021/07/14 06:32:25;;;;;;;6.68;2.42;;;;;;;;;;5037673;28;20014;-64
2021/07/14 06:34:50;;;;;;;3.93;2.03;;;;;;;;;;5039202;28;20032;-64
2021/07/14 06:37:16;;;;;;;3.85;1.75;;;;;;;;;;5037431;28;20373;-64
2021/07/14 06:39:41;;;;;;;3.90;1.88;;;;;;;;;;5035965;28;20036;-65
2021/07/14 06:42:06;;;;;;;4.28;1.70;;;;;;;;;;5036248;28;20056;-65
2021/07/14 06:44:32;;;;;;;4.22;1.65;;;;;;;;;;5030741;28;20111;-66
2021/07/14 06:46:57;;;;;;;3.88;1.75;;;;;;;;;;5042429;28;20021;-65
2021/07/14 06:49:22;;;;;;;3.03;1.77;;;;;;;;;;5036246;28;20090;-66
2021/07/14 06:51:48;;;;;;;2.53;1.67;;;;;;;;;;5032843;28;20021;-65
2021/07/14 06:54:13;;;;;;;4.97;1.83;;;;;;;;;;5027836;28;20130;-65
2021/07/14 06:56:38;;;;;;;4.75;1.90;;;;;;;;;;5034121;28;20025;-66
2021/07/14 06:59:03;;;;;;;5.10;1.90;;;;;;;;;;5033893;28;20028;-65
2021/07/14 07:01:29;;;;;;;4.15;2.00;;;;;;;;;;5038561;28;20029;-65
2021/07/14 07:03:54;;;;;;;3.92;1.55;;;;;;;;;;5031279;28;20024;-65
2021/07/14 07:06:19;;;;;;;3.30;1.83;;;;;;;;;;5033774;28;20071;-65
2021/07/14 07:08:44;;;;;;;4.18;1.60;;;;;;;;;;5028982;28;20275;-65
2021/07/14 07:11:10;;;;;;;2.85;1.85;;;;;;;;;;5029305;28;20042;-65
2021/07/14 07:13:35;;;;;;;2.80;1.63;;;;;;;;;;5026616;28;20040;-65
2021/07/14 07:16:01;;;;;;;4.82;1.90;;;;;;;;;;5027149;28;20014;-65
2021/07/14 07:18:26;;;;;;;2.92;1.80;;;;;;;;;;5019799;28;20420;-66
2021/07/14 07:20:52;;;;;;;4.22;1.90;;;;;;;;;;5031567;28;20018;-65
2021/07/14 07:23:17;;;;;;;2.37;1.60;;;;;;;;;;5032434;28;20025;-66
2021/07/14 07:25:43;;;;;;;2.42;1.50;;;;;;;;;;5037112;28;20627;-65
2021/07/14 07:28:14;;;;;;;2.92;1.50;;;;;;;;;;5028095;28;20504;-65
2021/07/14 07:30:39;;;;;;;3.17;1.70;;;;;;;;;;5025651;28;20588;-65
2021/07/14 07:33:05;;;;;;;3.33;1.77;;;;;;;;;;5029822;28;20021;-65
2021/07/14 07:35:30;;;;;;;2.83;1.60;;;;;;;;;;5033505;28;20028;-66
2021/07/14 07:37:55;;;;;;;3.43;1.50;;;;;;;;;;5033086;28;20490;-66
2021/07/14 07:40:21;;;;;;;6.55;1.70;;;;;;;;;;5041880;28;20268;-66
2021/07/14 07:42:46;;;;;;;3.63;1.60;;;;;;;;;;5028583;28;20080;-65
2021/07/14 07:45:11;;;;;;;2.60;1.40;;;;;;;;;;5027769;28;20025;-66
2021/07/14 07:47:36;;;;;;;3.90;1.65;;;;;;;;;;5034873;28;20117;-66
2021/07/14 07:50:03;;;;;;;2.92;1.40;;;;;;;;;;5032700;28;20449;-65
2021/07/14 07:52:28;;;;;;;2.85;1.60;;;;;;;;;;5026841;28;20021;-65
2021/07/14 07:54:55;;;;;;;3.28;1.90;;;;;;;;;;5034939;28;20535;-66
2021/07/14 07:57:20;;;;;;;5.38;1.60;;;;;;;;;;5034865;28;20067;-66
2021/07/14 07:59:46;;;;;;;5.45;1.60;;;;;;;;;;5047924;28;20021;-65
2021/07/14 08:02:11;;;;;;;2.20;1.45;;;;;;;;;;5042405;28;20148;-66
2021/07/14 08:04:36;;;;;;;4.38;1.65;;;;;;;;;;5029515;28;20032;-65
2021/07/14 08:07:01;;;;;;;2.53;1.40;;;;;;;;;;5027918;28;20025;-66
2021/07/14 08:09:26;;;;;;;3.75;1.70;;;;;;;;;;5033287;28;20553;-67
2021/07/14 08:11:53;;;;;;;3.17;1.70;;;;;;;;;;5039507;28;20072;-65
2021/07/14 08:14:18;;;;;;;3.20;1.33;;;;;;;;;;5027909;28;20268;-65
2021/07/14 08:16:44;;;;;;;2.03;1.23;;;;;;;;;;5035667;28;20047;-66
2021/07/14 08:19:09;;;;;;;2.60;1.38;;;;;;;;;;5047150;28;20033;-65
2021/07/14 08:21:35;;;;;;;1.92;1.33;;;;;;;;;;5036669;28;20039;-66
2021/07/14 08:24:00;;;;;;;1.90;1.30;;;;;;;;;;5032540;28;20017;-66
2021/07/14 08:26:25;;;;;;;3.55;1.50;;;;;;;;;;5030726;28;20124;-65
2021/07/14 08:28:51;;;;;;;2.38;1.30;;;;;;;;;;5040391;28;20392;-65
2021/07/14 08:31:16;;;;;;;2.67;1.48;;;;;;;;;;5048879;28;20443;-66
2021/07/14 08:33:42;;;;;;;3.42;1.27;;;;;;;;;;5035042;28;20461;-66
2021/07/14 08:36:07;;;;;;;2.55;1.50;;;;;;;;;;5047976;28;20044;-67
2021/07/14 08:38:32;;;;;;;3.92;1.40;;;;;;;;;;5034510;28;20079;-66
2021/07/14 08:40:58;;;;;;;2.80;1.10;;;;;;;;;;5032043;28;20381;-65
2021/07/14 08:43:27;;;;;;;2.35;1.52;;;;;;;;;;5031691;28;20050;-65
2021/07/14 08:45:52;;;;;;;3.22;1.60;;;;;;;;;;5031824;28;20018;-66
2021/07/14 08:48:17;;;;;;;2.78;1.50;;;;;;;;;;5030435;28;20021;-65
2021/07/14 08:50:44;;;;;;;3.50;1.52;;;;;;;;;;5028424;28;20017;-66
2021/07/14 08:53:13;;;;;;;6.40;1.65;;;;;;;;;;5049722;28;20028;-66
2021/07/14 08:55:38;;;;;;;2.70;1.70;;;;;;;;;;5036831;28;20487;-65
2021/07/14 08:58:04;;;;;;;2.10;1.50;;;;;;;;;;5031643;28;20022;-65
2021/07/14 09:00:30;;;;;;;4.85;1.40;;;;;;;;;;5038436;28;20025;-66
2021/07/14 09:02:55;;;;;;;4.93;1.80;;;;;;;;;;5031666;28;20037;-66
2021/07/14 09:05:21;;;;;;;2.35;1.52;;;;;;;;;;5038536;28;20083;-66
2021/07/14 09:07:46;;;;;;;2.53;1.60;;;;;;;;;;5044518;28;20092;-67
2021/07/14 09:10:13;;;;;;;2.50;1.67;;;;;;;;;;5025608;28;20022;-65
2021/07/14 09:12:41;;;;;;;2.53;1.42;;;;;;;;;;5031836;28;20022;-65
2021/07/14 09:15:07;;;;;;;2.83;1.38;;;;;;;;;;5050296;28;20017;-65
2021/07/14 09:17:32;;;;;;;3.67;1.60;;;;;;;;;;5038610;28;20033;-65
2021/07/14 09:20:08;;;;;;;4.65;1.60;;;;;;;;;;5030961;28;20413;-66
2021/07/14 09:22:33;;;;;;;2.45;1.33;;;;;;;;;;5050278;28;20048;-65
2021/07/14 09:24:59;;;;;;;1.65;1.15;;;;;;;;;;5043547;28;20111;-65
2021/07/14 09:27:30;;;;;;;3.28;1.60;;;;;;;;;;5031850;28;20021;-66
2021/07/14 09:30:05;;;;;;;2.72;1.50;;;;;;;;;;5031090;28;20022;-65
2021/07/14 09:32:42;;;;;;;2.03;1.40;;;;;;;;;;5030834;28;20067;-66
2021/07/14 09:35:07;;;;;;;1.85;1.23;;;;;;;;;;5045117;28;20085;-65
2021/07/14 09:37:36;;;;;;;3.72;1.63;;;;;;;;;;5049835;28;20021;-65
2021/07/14 09:40:01;;;;;;;1.88;1.17;;;;;;;;;;5049195;28;20033;-66
2021/07/14 09:42:28;;;;;;;1.92;1.33;;;;;;;;;;5036155;28;20039;-66
2021/07/14 09:44:53;;;;;;;2.13;1.38;;;;;;;;;;5030948;28;20035;-65
2021/07/14 09:47:19;;;;;;;1.67;1.20;;;;;;;;;;5050279;28;20524;-66
2021/07/14 09:49:45;;;;;;;3.47;1.45;;;;;;;;;;5024111;28;20275;-66
2021/07/14 09:52:18;;;;;;;2.10;1.48;;;;;;;;;;5026185;28;20033;-67
2021/07/14 09:54:43;;;;;;;2.58;1.40;;;;;;;;;;5023375;28;20048;-65
2021/07/14 09:57:09;;;;;;;2.20;1.38;;;;;;;;;;5036308;28;20491;-65
2021/07/14 09:59:34;;;;;;;2.35;1.48;;;;;;;;;;5030394;28;20017;-65
2021/07/14 10:02:00;;;;;;;2.92;1.20;;;;;;;;;;5030075;28;20026;-65
2021/07/14 10:04:31;;;;;;;2.22;1.48;;;;;;;;;;5030457;28;20017;-65
2021/07/14 10:07:15;;;;;;;3.55;1.50;;;;;;;;;;5029877;28;20037;-66
2021/07/14 10:09:41;;;;;;;2.80;1.80;;;;;;;;;;5043177;28;20017;-64
2021/07/14 10:12:26;;;;;;;2.90;1.50;;;;;;;;;;5044094;28;20078;-65
2021/07/14 10:14:52;;;;;;;2.00;1.20;;;;;;;;;;5036609;28;20129;-66
2021/07/14 10:17:36;;;;;;;2.40;1.48;;;;;;;;;;5045864;28;20041;-67
2021/07/14 10:20:21;;;;;;;3.28;1.58;;;;;;;;;;5030893;28;20477;-66
2021/07/14 10:22:49;;;;;;;2.25;1.55;;;;;;;;;;5030251;28;20091;-66
2021/07/14 10:25:16;;;;;;;3.35;1.73;;;;;;;;;;5043703;28;20049;-66
2021/07/14 10:27:41;;;;;;;3.38;1.40;;;;;;;;;;5041671;28;20621;-65
2021/07/14 10:30:07;;;;;;;2.75;1.58;;;;;;;;;;5030160;28;20109;-65
2021/07/14 10:32:32;;;;;;;1.98;1.52;;;;;;;;;;5036515;28;20025;-65
2021/07/14 10:34:57;;;;;;;3.72;1.70;;;;;;;;;;5033139;28;20017;-65
2021/07/14 10:37:22;;;;;;;2.67;1.40;;;;;;;;;;5029696;28;20471;-65
2021/07/14 10:39:48;;;;;;;1.92;1.30;;;;;;;;;;5029384;28;20033;-66
2021/07/14 10:42:13;;;;;;;2.22;1.38;;;;;;;;;;5041551;28;20040;-65
2021/07/14 10:44:39;;;;;;;2.13;1.23;;;;;;;;;;5044009;28;20055;-66
2021/07/14 10:47:04;;;;;;;2.10;1.55;;;;;;;;;;5036224;28;20029;-66
2021/07/14 10:49:30;;;;;;;2.97;1.70;;;;;;;;;;5029878;28;20021;-65
2021/07/14 10:51:56;;;;;;;4.70;1.52;;;;;;;;;;5035108;28;20132;-65
2021/07/14 10:54:23;;;;;;;2.38;1.45;;;;;;;;;;5042160;28;20026;-66
2021/07/14 10:56:48;;;;;;;3.42;1.70;;;;;;;;;;5028945;28;20425;-66
2021/07/14 10:59:14;;;;;;;2.22;1.48;;;;;;;;;;5031113;28;20029;-65
2021/07/14 11:01:42;;;;;;;3.42;1.70;;;;;;;;;;5030445;28;20108;-67
2021/07/14 11:04:29;;;;;;;6.93;1.48;;;;;;;;;;5029359;28;20360;-68
2021/07/14 11:06:56;;;;;;;2.58;1.70;;;;;;;;;;5036479;28;20017;-69
2021/07/14 11:09:34;;;;;;;3.80;1.58;;;;;;;;;;5043509;28;20125;-66
2021/07/14 11:12:02;;;;;;;3.88;1.73;;;;;;;;;;5041701;28;20025;-67
2021/07/14 11:14:40;;;;;;;2.60;1.50;;;;;;;;;;5041860;28;20468;-68
2021/07/14 11:17:12;;;;;;;2.33;1.30;;;;;;;;;;5026407;28;20036;-70
2021/07/14 11:19:42;;;;;;;3.45;1.63;;;;;;;;;;5036271;28;20376;-66
2021/07/14 11:22:14;;;;;;;2.75;1.40;;;;;;;;;;5034657;28;20138;-66
2021/07/14 11:24:41;;;;;;;2.75;1.42;;;;;;;;;;5033390;28;20150;-66
2021/07/14 11:27:18;;;;;;;2.53;1.42;;;;;;;;;;5036091;28;20112;-67
2021/07/14 11:29:46;;;;;;;2.92;1.73;;;;;;;;;;5025837;28;20087;-65
2021/07/14 11:32:30;;;;;;;2.67;1.60;;;;;;;;;;5033055;28;20025;-68
2021/07/14 11:35:03;;;;;;;2.80;1.67;;;;;;;;;;5033594;28;20151;-66
2021/07/14 11:37:35;;;;;;;3.17;1.52;;;;;;;;;;5034761;28;20025;-66
2021/07/14 11:40:21;;;;;;;5.38;1.60;;;;;;;;;;5027615;28;20033;-66
2021/07/14 11:42:46;;;;;;;2.63;1.55;;;;;;;;;;5030637;28;20495;-65
2021/07/14 11:45:12;;;;;;;3.00;1.45;;;;;;;;;;5039063;28;20071;-65
2021/07/14 11:47:37;;;;;;;3.83;2.05;;;;;;;;;;5026684;28;20082;-63
2021/07/14 11:50:06;;;;;;;4.20;2.13;;;;;;;;;;5034682;28;20435;-65
2021/07/14 11:52:41;;;;;;;2.75;1.70;;;;;;;;;;5036836;28;20315;-64
2021/07/14 11:55:21;;;;;;;3.67;2.03;;;;;;;;;;5041014;28;20025;-65
2021/07/14 11:57:47;;;;;;;5.15;2.72;;;;;;;;;;5039474;28;20088;-65
2021/07/14 12:00:12;;;;;;;4.63;2.78;;;;;;;;;;5033941;28;20057;-65
2021/07/14 12:02:37;;;;;;;3.03;1.90;;;;;;;;;;5040177;28;20039;-65
2021/07/14 12:05:04;;;;;;;3.38;2.00;;;;;;;;;;5044828;28;20043;-65
2021/07/14 12:07:37;;;;;;;3.22;2.08;;;;;;;;;;5037959;28;20025;-66
2021/07/14 12:10:02;;;;;;;4.85;1.98;;;;;;;;;;5039948;28;20397;-66
2021/07/14 12:12:27;;;;;;;6.07;2.55;;;;;;;;;;5032229;28;20044;-66
2021/07/14 12:14:53;;;;;;;3.43;2.50;;;;;;;;;;5040474;28;20078;-66
2021/07/14 12:17:20;;;;;;;3.53;2.15;;;;;;;;;;5041237;28;20350;-66
2021/07/14 12:19:47;;;;;;;2.92;2.25;;;;;;;;;;5036769;28;20022;-66
2021/07/14 12:22:14;;;;;;;3.42;2.20;;;;;;;;;;5037021;28;20044;-65
2021/07/14 12:24:41;;;;;;;3.35;2.03;;;;;;;;;;5033351;28;20109;-66
2021/07/14 12:27:09;;;;;;;3.80;2.15;;;;;;;;;;5036260;28;20040;-66
2021/07/14 12:29:35;;;;;;;3.92;2.25;;;;;;;;;;5042167;28;20083;-67
2021/07/14 12:32:00;;;;;;;3.40;2.20;;;;;;;;;;5037220;28;20029;-64
2021/07/14 12:34:26;;;;;;;2.88;2.10;;;;;;;;;;5036434;28;20037;-66
2021/07/14 12:36:52;;;;;;;3.13;2.00;;;;;;;;;;5036957;28;20097;-66
2021/07/14 12:39:21;;;;;;;3.50;2.30;;;;;;;;;;5033996;28;20618;-66
2021/07/14 12:41:49;;;;;;;2.85;2.13;;;;;;;;;;5034243;28;20133;-67
2021/07/14 12:44:15;;;;;;;2.55;2.20;;;;;;;;;;5037586;28;20104;-66
2021/07/14 12:46:40;;;;;;;6.22;2.50;;;;;;;;;;5033069;28;20606;-66
2021/07/14 12:49:09;;;;;;;2.87;2.00;;;;;;;;;;5030421;28;20025;-65
2021/07/14 12:51:34;;;;;;;3.75;1.90;;;;;;;;;;5036682;28;20279;-66
2021/07/14 12:53:59;;;;;;;3.58;2.20;;;;;;;;;;5042090;28;20048;-65
2021/07/14 12:56:25;;;;;;;3.40;2.17;;;;;;;;;;5034875;28;20368;-65
2021/07/14 12:59:02;;;;;;;2.90;2.10;;;;;;;;;;5033825;28;20276;-65
2021/07/14 13:01:27;;;;;;;3.88;1.83;;;;;;;;;;5037888;28;20039;-66
2021/07/14 13:03:53;;;;;;;4.55;2.10;;;;;;;;;;5029864;28;20116;-65
2021/07/14 13:06:19;;;;;;;5.25;2.40;;;;;;;;;;5046038;28;20074;-65
2021/07/14 13:08:48;;;;;;;5.45;2.45;;;;;;;;;;5040670;28;20053;-65
2021/07/14 13:11:14;;;;;;;3.13;2.30;;;;;;;;;;5037006;28;20025;-65
2021/07/14 13:13:39;;;;;;;4.30;2.50;;;;;;;;;;5049584;28;20024;-65
2021/07/14 13:16:05;;;;;;;5.32;2.60;;;;;;;;;;5033270;28;20040;-65
2021/07/14 13:18:37;;;;;;;2.67;2.25;;;;;;;;;;5030982;28;20521;-65
2021/07/14 13:21:03;;;;;;;4.63;2.20;;;;;;;;;;5038236;28;20434;-66
2021/07/14 13:23:30;;;;;;;6.82;2.30;;;;;;;;;;5043604;28;20071;-66
2021/07/14 13:25:56;;;;;;;3.92;2.40;;;;;;;;;;5037055;28;20025;-67
2021/07/14 13:28:22;;;;;;;3.28;1.92;;;;;;;;;;5034631;28;20074;-66
2021/07/14 13:30:49;;;;;;;3.53;2.10;;;;;;;;;;5029412;28;20064;-64
2021/07/14 13:33:15;;;;;;;5.10;2.40;;;;;;;;;;5027744;28;20415;-65
2021/07/14 13:35:42;;;;;;;3.30;2.03;;;;;;;;;;5027855;28;20072;-65
2021/07/14 13:38:26;;;;;;;3.22;2.25;;;;;;;;;;5033960;28;20025;-66
2021/07/14 13:40:52;;;;;;;6.32;2.53;;;;;;;;;;5024714;28;20115;-65
2021/07/14 13:43:17;;;;;;;4.90;2.33;;;;;;;;;;5036246;28;20390;-65
2021/07/14 13:45:42;;;;;;;4.80;2.10;;;;;;;;;;5024761;28;20028;-66
2021/07/14 13:48:08;;;;;;;3.83;2.10;;;;;;;;;;5026984;28;20059;-66
2021/07/14 13:50:33;;;;;;;2.67;1.90;;;;;;;;;;5036897;28;20017;-67
2021/07/14 13:53:03;;;;;;;3.60;2.00;;;;;;;;;;5034827;28;20448;-65
2021/07/14 13:55:28;;;;;;;2.80;2.15;;;;;;;;;;5032507;28;20517;-66
2021/07/14 13:58:04;;;;;;;4.40;2.45;;;;;;;;;;5026311;28;20022;-68
2021/07/14 14:00:29;;;;;;;3.13;2.17;;;;;;;;;;5028193;28;20024;-66
2021/07/14 14:02:58;;;;;;;2.88;2.10;;;;;;;;;;5024296;28;20037;-66
2021/07/14 14:05:23;;;;;;;4.10;2.53;;;;;;;;;;5036595;28;20056;-65
2021/07/14 14:07:49;;;;;;;5.57;2.22;;;;;;;;;;5028693;28;20044;-66
2021/07/14 14:10:21;;;;;;;7.82;2.63;;;;;;;;;;5031424;28;20434;-66
2021/07/14 14:12:47;;;;;;;4.00;2.42;;;;;;;;;;5048579;28;20115;-67
2021/07/14 14:15:16;;;;;;;3.65;2.47;;;;;;;;;;5039131;28;20066;-65
2021/07/14 14:17:42;;;;;;;4.05;2.42;;;;;;;;;;5033473;28;20079;-66
2021/07/14 14:20:08;;;;;;;4.15;2.25;;;;;;;;;;5044735;28;20021;-66
2021/07/14 14:22:33;;;;;;;4.65;2.25;;;;;;;;;;5034383;28;20037;-66
2021/07/14 14:25:04;;;;;;;4.00;2.40;;;;;;;;;;5034374;28;20025;-66
2021/07/14 14:30:16;;;;;;;3.15;2.05;;;;;;;;;;5044685;28;20099;-66
2021/07/14 14:32:42;;;;;;;4.28;2.17;;;;;;;;;;5025833;28;20491;-66
2021/07/14 14:35:07;;;;;;;3.22;2.17;;;;;;;;;;5030165;28;20026;-66
2021/07/14 14:37:32;;;;;;;6.35;2.58;;;;;;;;;;5042486;28;20021;-66
2021/07/14 14:39:58;;;;;;;3.53;2.05;;;;;;;;;;5032052;28;20018;-66
2021/07/14 14:42:23;;;;;;;4.55;2.63;;;;;;;;;;5020947;28;20032;-66
2021/07/14 14:44:48;;;;;;;3.55;2.20;;;;;;;;;;5034385;28;20428;-66
2021/07/14 14:47:13;;;;;;;6.17;2.10;;;;;;;;;;5029965;28;20272;-66
2021/07/14 14:49:38;;;;;;;4.10;2.40;;;;;;;;;;5036477;28;20764;-65